Time;durP1;ratioP1;P1;durP2;ratioP2;P2;SDS_P1;SDS_P2;PMS_P1;PMS_P2;Temp;Humidity;BMP_temperature;BMP_pressure;BME280_temperature;BME280_humidity;BME280_pressure;Samples;Min_cycle;Max_cycle;Signal;HPM_P1;HPM_P2
2021/04/18 00:00:42;;;;;;;23.35;22.13;;;5.80;82.00;;;;;;5092982;28;20298;-76
2021/04/18 00:03:09;;;;;;;23.60;22.20;;;5.80;82.00;;;;;;5093164;28;20192;-77
2021/04/18 00:05:35;;;;;;;23.80;22.50;;;5.80;83.20;;;;;;5092917;28;20200;-76
2021/04/18 00:08:02;;;;;;;22.60;21.40;;;5.70;83.10;;;;;;5093076;28;20664;-76
2021/04/18 00:10:30;;;;;;;23.98;22.58;;;5.80;82.50;;;;;;5093251;28;20213;-76
2021/04/18 00:12:57;;;;;;;23.92;22.40;;;5.80;82.20;;;;;;5092365;28;20302;-76
2021/04/18 00:15:24;;;;;;;24.08;22.50;;;6.00;82.00;;;;;;5092892;28;20285;-77
2021/04/18 00:17:51;;;;;;;24.95;23.23;;;6.00;81.40;;;;;;5092360;28;20203;-77
2021/04/18 00:20:18;;;;;;;24.17;22.67;;;6.10;80.80;;;;;;5093001;28;20780;-77
2021/04/18 00:22:45;;;;;;;23.98;22.42;;;6.10;80.80;;;;;;5092911;28;20354;-75
2021/04/18 00:25:13;;;;;;;22.77;21.48;;;6.10;81.20;;;;;;5092913;28;20333;-75
2021/04/18 00:27:41;;;;;;;22.90;21.40;;;6.00;81.90;;;;;;5092210;28;20736;-74
2021/04/18 00:30:09;;;;;;;24.15;22.65;;;5.80;82.50;;;;;;5092642;28;20353;-74
2021/04/18 00:32:36;;;;;;;24.20;22.60;;;5.90;82.50;;;;;;5092819;28;20199;-74
2021/04/18 00:35:03;;;;;;;24.52;23.10;;;5.90;82.00;;;;;;5092688;28;20192;-75
2021/04/18 00:37:29;;;;;;;23.65;22.35;;;5.80;82.10;;;;;;5092105;28;20291;-74
2021/04/18 00:39:56;;;;;;;22.90;21.52;;;5.80;82.80;;;;;;5092529;28;20219;-74
2021/04/18 00:42:22;;;;;;;23.50;22.13;;;5.80;82.30;;;;;;5092463;28;20287;-75
2021/04/18 00:44:50;;;;;;;23.45;22.05;;;5.80;82.40;;;;;;5092671;28;20227;-74
2021/04/18 00:47:17;;;;;;;25.92;23.67;;;5.70;83.30;;;;;;5091910;28;20203;-74
2021/04/18 00:49:44;;;;;;;24.00;22.17;;;5.60;84.30;;;;;;5092578;28;20199;-74
2021/04/18 00:52:11;;;;;;;23.95;22.55;;;5.60;84.60;;;;;;5092371;28;20195;-74
2021/04/18 00:54:37;;;;;;;24.02;22.73;;;5.80;83.50;;;;;;5092580;28;20310;-74
2021/04/18 00:57:06;;;;;;;23.17;21.83;;;5.80;82.90;;;;;;5091737;28;20206;-75
2021/04/18 00:59:33;;;;;;;23.65;22.30;;;5.80;83.30;;;;;;5092385;28;20268;-75
2021/04/18 01:02:00;;;;;;;23.25;21.67;;;5.80;83.50;;;;;;5092418;28;20194;-76
2021/04/18 01:04:26;;;;;;;22.92;21.63;;;5.80;83.10;;;;;;5092377;28;20195;-74
2021/04/18 01:06:53;;;;;;;24.73;23.23;;;5.80;83.30;;;;;;5091965;28;20206;-74
2021/04/18 01:09:20;;;;;;;23.48;21.92;;;5.80;83.40;;;;;;5092359;28;20195;-74
2021/04/18 01:11:46;;;;;;;23.45;22.08;;;5.80;83.20;;;;;;5092179;28;20306;-74
2021/04/18 01:14:13;;;;;;;24.73;23.10;;;5.80;83.40;;;;;;5091854;28;20211;-75
2021/04/18 01:16:39;;;;;;;23.73;22.42;;;5.80;83.30;;;;;;5091373;28;20195;-74
2021/04/18 01:19:06;;;;;;;25.23;22.70;;;5.70;83.90;;;;;;5092392;28;20286;-76
2021/04/18 01:21:34;;;;;;;23.65;22.25;;;5.80;84.00;;;;;;5091907;28;20306;-77
2021/04/18 01:24:00;;;;;;;23.27;21.88;;;5.80;83.10;;;;;;5092182;28;20191;-74
2021/04/18 01:26:27;;;;;;;23.52;22.13;;;5.80;83.50;;;;;;5091309;28;20203;-75
2021/04/18 01:28:53;;;;;;;23.00;21.70;;;5.70;84.30;;;;;;5092293;28;20660;-74
2021/04/18 01:31:19;;;;;;;24.42;22.90;;;5.70;84.40;;;;;;5092001;28;20223;-74
2021/04/18 01:33:46;;;;;;;24.00;22.50;;;5.70;85.10;;;;;;5092104;28;20311;-75
2021/04/18 01:36:12;;;;;;;24.00;22.60;;;5.60;84.70;;;;;;5091297;28;20700;-76
2021/04/18 01:38:40;;;;;;;24.85;23.17;;;5.60;85.40;;;;;;5092036;28;20283;-75
2021/04/18 01:41:09;;;;;;;24.80;23.30;;;5.50;86.60;;;;;;5092147;28;20230;-74
2021/04/18 01:43:39;;;;;;;24.30;22.90;;;5.50;86.20;;;;;;5092197;28;20191;-74
2021/04/18 01:46:05;;;;;;;23.00;21.70;;;5.50;87.00;;;;;;5091417;28;20203;-75
2021/04/18 01:48:31;;;;;;;24.55;22.95;;;5.60;89.50;;;;;;5092011;28;20286;-74
2021/04/18 01:51:04;;;;;;;22.38;21.10;;;5.60;87.30;;;;;;5092319;28;20353;-74
2021/04/18 01:53:30;;;;;;;24.17;22.77;;;5.60;87.80;;;;;;5092069;28;20219;-75
2021/04/18 01:55:58;;;;;;;24.55;23.05;;;5.70;86.70;;;;;;5091930;28;20227;-74
2021/04/18 01:58:25;;;;;;;23.15;21.85;;;5.70;86.30;;;;;;5092039;28;20272;-75
2021/04/18 02:00:51;;;;;;;24.92;23.42;;;5.70;86.10;;;;;;5091909;28;20225;-75
2021/04/18 02:03:18;;;;;;;24.92;23.38;;;5.70;88.70;;;;;;5092058;28;20280;-74
2021/04/18 02:05:45;;;;;;;24.38;22.88;;;5.70;87.70;;;;;;5091247;28;20203;-74
2021/04/18 02:08:12;;;;;;;23.60;22.20;;;5.80;86.60;;;;;;5091838;28;20192;-74
2021/04/18 02:10:38;;;;;;;25.90;24.20;;;5.90;86.00;;;;;;5091761;28;20310;-74
2021/04/18 02:13:05;;;;;;;203.63;37.38;;;6.00;85.60;;;;;;5091730;28;20241;-75
2021/04/18 02:15:32;;;;;;;24.05;22.55;;;5.90;91.90;;;;;;5091281;28;20274;-75
2021/04/18 02:17:58;;;;;;;24.63;23.13;;;5.80;88.20;;;;;;5091496;28;20608;-74
2021/04/18 02:20:25;;;;;;;25.70;24.10;;;5.80;86.80;;;;;;5091457;28;20330;-74
2021/04/18 02:22:51;;;;;;;25.92;24.33;;;5.70;87.10;;;;;;5091439;28;20239;-75
2021/04/18 02:25:18;;;;;;;25.95;24.40;;;5.70;86.60;;;;;;5093468;28;20207;-75
2021/04/18 02:27:44;;;;;;;25.42;23.88;;;5.70;85.90;;;;;;5095090;28;20198;-74
2021/04/18 02:30:12;;;;;;;25.38;23.77;;;5.70;86.50;;;;;;5095180;28;20315;-74
2021/04/18 02:32:41;;;;;;;26.20;24.42;;;5.90;85.10;;;;;;5095114;28;20244;-74
2021/04/18 02:35:09;;;;;;;26.70;24.98;;;5.90;85.50;;;;;;5095005;28;20261;-74
2021/04/18 02:37:35;;;;;;;26.20;24.38;;;5.90;84.50;;;;;;5094571;28;20657;-74
2021/04/18 02:40:02;;;;;;;26.50;24.90;;;5.90;84.00;;;;;;5095029;28;20212;-74
2021/04/18 02:42:28;;;;;;;25.95;24.17;;;5.90;84.40;;;;;;5095095;28;20668;-74
2021/04/18 02:44:55;;;;;;;25.63;24.02;;;5.90;84.10;;;;;;5094934;28;20276;-74
2021/04/18 02:47:22;;;;;;;25.27;23.73;;;5.90;83.70;;;;;;5094200;28;20211;-74
2021/04/18 02:49:48;;;;;;;27.42;25.45;;;5.90;83.30;;;;;;5094549;28;20700;-74
2021/04/18 02:52:15;;;;;;;27.15;25.33;;;5.90;83.30;;;;;;5094884;28;20196;-75
2021/04/18 02:54:41;;;;;;;25.48;23.80;;;5.80;85.00;;;;;;5094746;28;20714;-77
2021/04/18 02:57:08;;;;;;;25.38;23.65;;;5.70;84.40;;;;;;5094621;28;20317;-77
2021/04/18 02:59:34;;;;;;;26.10;24.10;;;5.70;84.70;;;;;;5094560;28;20191;-74
2021/04/18 03:02:01;;;;;;;26.50;24.90;;;5.80;84.30;;;;;;5094478;28;20717;-75
2021/04/18 03:04:28;;;;;;;26.25;24.50;;;5.80;84.20;;;;;;5094513;28;20625;-75
2021/04/18 03:06:54;;;;;;;25.75;24.25;;;5.70;86.20;;;;;;5093931;28;20226;-74
2021/04/18 03:09:21;;;;;;;25.80;24.15;;;5.70;86.20;;;;;;5094349;28;20195;-75
2021/04/18 03:11:47;;;;;;;26.58;24.55;;;5.60;86.30;;;;;;5094411;28;20335;-74
2021/04/18 03:14:13;;;;;;;26.02;24.13;;;5.50;86.30;;;;;;5094237;28;20215;-74
2021/04/18 03:16:40;;;;;;;25.42;23.90;;;5.50;86.40;;;;;;5093236;28;20638;-75
2021/04/18 03:19:07;;;;;;;26.35;24.70;;;5.50;86.10;;;;;;5094318;28;20666;-74
2021/04/18 03:21:34;;;;;;;26.08;24.48;;;5.50;86.00;;;;;;5094070;28;20225;-75
2021/04/18 03:24:01;;;;;;;26.30;24.50;;;5.60;85.80;;;;;;5094078;28;20278;-75
2021/04/18 03:26:28;;;;;;;26.33;24.73;;;5.60;87.10;;;;;;5093637;28;20207;-75
2021/04/18 03:28:54;;;;;;;25.80;24.30;;;5.60;86.90;;;;;;5094085;28;20199;-74
2021/04/18 03:31:20;;;;;;;27.70;25.08;;;5.70;86.90;;;;;;5093899;28;20220;-75
2021/04/18 03:33:47;;;;;;;26.95;25.15;;;5.80;89.10;;;;;;5093899;28;20223;-74
2021/04/18 03:36:13;;;;;;;30.17;24.20;;;5.70;88.00;;;;;;5093130;28;20230;-74
2021/04/18 03:38:41;;;;;;;25.58;23.98;;;5.70;89.20;;;;;;5093955;28;20707;-74
2021/04/18 03:41:07;;;;;;;26.42;24.63;;;5.80;89.20;;;;;;5093675;28;20242;-74
2021/04/18 03:43:33;;;;;;;25.42;23.83;;;5.70;86.30;;;;;;5093604;28;20196;-74
2021/04/18 03:46:00;;;;;;;27.05;25.27;;;5.60;86.20;;;;;;5093153;28;20196;-75
2021/04/18 03:48:26;;;;;;;26.25;24.55;;;5.50;85.30;;;;;;5093608;28;20674;-74
2021/04/18 03:50:52;;;;;;;39.05;26.75;;;5.50;85.50;;;;;;5093640;28;20215;-75
2021/04/18 03:53:19;;;;;;;28.30;26.38;;;5.60;86.60;;;;;;5093393;28;20643;-73
2021/04/18 03:55:46;;;;;;;25.70;24.20;;;5.50;86.70;;;;;;5092988;28;20287;-74
2021/04/18 03:58:12;;;;;;;25.80;24.20;;;5.60;86.40;;;;;;5093377;28;20273;-74
2021/04/18 04:00:39;;;;;;;26.52;24.90;;;5.60;85.90;;;;;;5093362;28;20215;-74
2021/04/18 04:03:05;;;;;;;27.85;25.95;;;5.70;85.40;;;;;;5093334;28;20282;-74
2021/04/18 04:05:32;;;;;;;27.63;25.90;;;5.70;86.00;;;;;;5092743;28;20620;-74
2021/04/18 04:07:59;;;;;;;26.95;25.05;;;5.80;85.90;;;;;;5093291;28;20209;-75
2021/04/18 04:10:26;;;;;;;26.85;25.20;;;5.80;85.60;;;;;;5093326;28;20222;-75
2021/04/18 04:12:53;;;;;;;29.23;27.33;;;5.70;86.00;;;;;;5092948;28;20607;-74
2021/04/18 04:15:19;;;;;;;25.60;24.02;;;5.70;86.20;;;;;;5093005;28;20202;-74
2021/04/18 04:17:46;;;;;;;26.67;24.88;;;5.80;85.60;;;;;;5092345;28;20606;-74
2021/04/18 04:20:14;;;;;;;27.30;25.30;;;5.80;84.80;;;;;;5093087;28;20223;-74
2021/04/18 04:22:42;;;;;;;27.05;25.35;;;5.80;84.50;;;;;;5092926;28;20237;-74
2021/04/18 04:25:10;;;;;;;191.38;42.10;;;5.60;84.30;;;;;;5092960;28;20199;-74
2021/04/18 04:27:38;;;;;;;27.65;25.58;;;5.60;85.20;;;;;;5092326;28;20291;-74
2021/04/18 04:30:06;;;;;;;27.67;25.75;;;5.60;86.90;;;;;;5093091;28;20218;-75
2021/04/18 04:32:33;;;;;;;27.38;25.67;;;5.60;86.20;;;;;;5093101;28;20199;-74
2021/04/18 04:34:59;;;;;;;26.90;25.25;;;5.60;85.90;;;;;;5092727;28;20794;-74
2021/04/18 04:37:26;;;;;;;26.95;25.20;;;5.70;85.10;;;;;;5092377;28;20230;-74
2021/04/18 04:39:52;;;;;;;28.23;26.35;;;5.80;84.40;;;;;;5092603;28;20215;-74
2021/04/18 04:42:18;;;;;;;26.77;25.05;;;5.80;84.20;;;;;;5092502;28;20198;-75
2021/04/18 04:44:45;;;;;;;26.90;25.20;;;5.70;84.30;;;;;;5092834;28;20201;-74
2021/04/18 04:47:12;;;;;;;25.92;24.33;;;5.70;84.70;;;;;;5091215;28;20204;-75
2021/04/18 04:49:38;;;;;;;27.88;25.58;;;5.70;85.10;;;;;;5092492;28;20199;-74
2021/04/18 04:52:09;;;;;;;26.35;24.75;;;5.70;85.00;;;;;;5092392;28;20196;-74
2021/04/18 04:54:35;;;;;;;27.60;25.77;;;5.60;85.10;;;;;;5092486;28;20282;-75
2021/04/18 04:57:02;;;;;;;59.60;27.85;;;5.60;84.90;;;;;;5091906;28;20222;-74
2021/04/18 04:59:28;;;;;;;27.60;25.55;;;5.60;85.60;;;;;;5092437;28;20227;-74
2021/04/18 05:01:54;;;;;;;26.15;24.55;;;5.80;84.80;;;;;;5092446;28;20231;-74
2021/04/18 05:04:22;;;;;;;26.23;24.35;;;6.00;83.50;;;;;;5092507;28;20277;-74
2021/04/18 05:06:48;;;;;;;29.30;27.30;;;5.80;84.60;;;;;;5091709;28;20201;-74
2021/04/18 05:09:14;;;;;;;27.20;25.45;;;5.80;83.60;;;;;;5092330;28;20283;-74
2021/04/18 05:11:41;;;;;;;27.25;25.65;;;5.80;83.00;;;;;;5092186;28;20310;-74
2021/04/18 05:14:07;;;;;;;27.25;25.65;;;5.80;82.70;;;;;;5092323;28;20229;-75
2021/04/18 05:16:33;;;;;;;27.40;25.55;;;5.80;82.40;;;;;;5091455;28;20687;-74
2021/04/18 05:19:00;;;;;;;28.17;26.33;;;5.90;82.60;;;;;;5092374;28;20192;-74
2021/04/18 05:21:27;;;;;;;175.55;38.20;;;5.90;84.20;;;;;;5091924;28;20219;-75
2021/04/18 05:23:54;;;;;;;79.40;30.65;;;6.00;90.50;;;;;;5091872;28;20228;-75
2021/04/18 05:26:20;;;;;;;28.60;26.63;;;6.00;89.20;;;;;;5091511;28;20588;-75
2021/04/18 05:28:47;;;;;;;27.52;25.73;;;5.90;88.00;;;;;;5092321;28;20281;-75
2021/04/18 05:31:14;;;;;;;27.60;25.88;;;6.10;92.00;;;;;;5092131;28;20627;-75
2021/04/18 05:33:40;;;;;;;28.67;26.77;;;6.10;88.80;;;;;;5092240;28;20272;-74
2021/04/18 05:36:07;;;;;;;30.50;28.50;;;6.10;87.10;;;;;;5091283;28;20195;-74
2021/04/18 05:38:34;;;;;;;28.77;26.90;;;6.10;86.30;;;;;;5092079;28;20652;-75
2021/04/18 05:41:00;;;;;;;30.08;27.98;;;6.30;85.20;;;;;;5092042;28;20574;-75
2021/04/18 05:43:27;;;;;;;29.50;27.55;;;6.20;85.00;;;;;;5092169;28;20191;-75
2021/04/18 05:45:53;;;;;;;29.23;27.15;;;6.20;85.00;;;;;;5091407;28;20674;-75
2021/04/18 05:48:20;;;;;;;28.52;26.55;;;6.20;86.90;;;;;;5092019;28;20208;-75
2021/04/18 05:50:46;;;;;;;28.65;26.80;;;6.10;86.60;;;;;;5091729;28;20307;-75
2021/04/18 05:53:13;;;;;;;28.17;26.27;;;6.20;85.30;;;;;;5091989;28;20195;-75
2021/04/18 05:55:41;;;;;;;29.65;27.38;;;6.30;83.90;;;;;;5091330;28;20191;-75
2021/04/18 05:58:08;;;;;;;29.30;27.30;;;6.30;86.60;;;;;;5092014;28;20301;-76
2021/04/18 06:00:34;;;;;;;27.85;26.13;;;6.30;85.20;;;;;;5095590;28;20294;-75
2021/04/18 06:03:01;;;;;;;30.10;28.10;;;6.30;83.80;;;;;;5095741;28;20287;-76
2021/04/18 06:05:28;;;;;;;31.02;28.92;;;6.40;83.50;;;;;;5094899;28;20623;-76
2021/04/18 06:07:54;;;;;;;29.40;27.45;;;6.50;83.40;;;;;;5095705;28;20201;-75
2021/04/18 06:10:20;;;;;;;31.95;29.50;;;6.50;83.20;;;;;;5095536;28;20252;-77
2021/04/18 06:12:48;;;;;;;30.27;27.63;;;6.50;84.50;;;;;;5095364;28;20672;-75
2021/04/18 06:15:14;;;;;;;51.22;30.10;;;6.70;85.00;;;;;;5095264;28;20310;-75
2021/04/18 06:17:41;;;;;;;28.83;27.08;;;6.80;90.90;;;;;;5094412;28;20202;-75
2021/04/18 06:20:08;;;;;;;34.47;28.63;;;6.80;87.90;;;;;;5095272;28;20227;-76
2021/04/18 06:22:35;;;;;;;58.45;29.75;;;6.80;88.30;;;;;;5095185;28;20281;-74
2021/04/18 06:25:01;;;;;;;31.33;29.17;;;7.00;86.80;;;;;;5095199;28;20287;-74
2021/04/18 06:27:27;;;;;;;30.15;28.25;;;6.90;84.10;;;;;;5094964;28;20265;-74
2021/04/18 06:29:55;;;;;;;29.20;27.40;;;7.00;83.50;;;;;;5095141;28;20223;-79
2021/04/18 06:32:21;;;;;;;31.60;29.60;;;7.10;82.70;;;;;;5095132;28;20289;-78
2021/04/18 06:34:48;;;;;;;29.42;27.52;;;7.10;82.30;;;;;;5095008;28;20252;-75
2021/04/18 06:37:14;;;;;;;31.00;28.55;;;7.20;83.70;;;;;;5094546;28;20251;-74
2021/04/18 06:39:41;;;;;;;30.23;28.23;;;7.30;86.30;;;;;;5095010;28;20201;-75
2021/04/18 06:42:11;;;;;;;32.67;30.67;;;7.50;84.80;;;;;;5095148;28;20202;-75
2021/04/18 06:44:38;;;;;;;35.55;31.52;;;7.60;82.90;;;;;;5095166;28;20278;-75
2021/04/18 06:47:05;;;;;;;48.00;36.03;;;7.70;87.30;;;;;;5094012;28;20206;-75
2021/04/18 06:49:32;;;;;;;121.40;35.03;;;7.70;88.20;;;;;;5094917;28;20203;-77
2021/04/18 06:51:58;;;;;;;28.38;26.48;;;7.90;85.50;;;;;;5095719;28;20290;-75
2021/04/18 06:54:25;;;;;;;29.75;27.75;;;8.20;84.30;;;;;;5094639;28;20215;-75
2021/04/18 06:56:51;;;;;;;30.85;28.77;;;8.40;82.30;;;;;;5094234;28;20293;-74
2021/04/18 06:59:18;;;;;;;30.60;28.70;;;8.40;78.80;;;;;;5094631;28;20227;-74
2021/04/18 07:01:44;;;;;;;155.13;59.75;;;8.50;77.70;;;;;;5094319;28;20211;-74
2021/04/18 07:04:14;;;;;;;36.40;33.17;;;8.40;76.80;;;;;;5094588;28;20222;-75
2021/04/18 07:06:42;;;;;;;32.22;30.00;;;8.50;76.40;;;;;;5093882;28;20238;-75
2021/04/18 07:09:09;;;;;;;31.25;28.75;;;8.70;78.10;;;;;;5094483;28;20593;-75
2021/04/18 07:11:48;;;;;;;33.60;31.50;;;8.80;75.00;;;;;;5093472;28;20250;-74
2021/04/18 07:14:22;;;;;;;31.20;29.10;;;8.80;75.00;;;;;;5094217;28;20224;-74
2021/04/18 07:16:49;;;;;;;31.80;29.70;;;9.10;77.00;;;;;;5093487;28;20199;-75
2021/04/18 07:19:23;;;;;;;32.30;30.10;;;8.90;74.30;;;;;;5094485;28;20736;-74
2021/04/18 07:21:52;;;;;;;32.35;30.25;;;9.00;72.80;;;;;;5094251;28;20230;-75
2021/04/18 07:24:19;;;;;;;30.95;28.65;;;9.10;71.90;;;;;;5094387;28;20202;-78
2021/04/18 07:26:57;;;;;;;30.63;28.45;;;9.30;70.70;;;;;;5093537;28;20699;-75
2021/04/18 07:29:25;;;;;;;30.80;28.67;;;9.40;70.10;;;;;;5094100;28;20206;-76
2021/04/18 07:31:52;;;;;;;31.67;29.52;;;9.20;70.30;;;;;;5094010;28;20669;-75
2021/04/18 07:34:20;;;;;;;31.42;29.33;;;9.00;70.50;;;;;;5094024;28;20223;-76
2021/04/18 07:36:49;;;;;;;32.10;29.90;;;9.10;72.20;;;;;;5093129;28;20278;-76
2021/04/18 07:39:17;;;;;;;31.90;29.55;;;9.00;72.80;;;;;;5093819;28;20210;-76
2021/04/18 07:41:45;;;;;;;31.08;29.05;;;9.10;74.30;;;;;;5093665;28;20219;-76
2021/04/18 07:44:16;;;;;;;32.38;30.17;;;9.10;73.70;;;;;;5093719;28;20227;-76
2021/04/18 07:46:45;;;;;;;32.50;30.20;;;9.10;70.90;;;;;;5092884;28;20206;-76
2021/04/18 07:49:15;;;;;;;29.83;27.92;;;9.10;69.90;;;;;;5093782;28;20199;-76
2021/04/18 07:51:45;;;;;;;30.92;28.85;;;9.00;69.50;;;;;;5093528;28;20306;-78
2021/04/18 07:54:14;;;;;;;32.17;29.42;;;8.90;70.50;;;;;;5093682;28;20223;-76
2021/04/18 07:56:44;;;;;;;31.95;29.70;;;8.90;71.10;;;;;;5092949;28;20229;-77
2021/04/18 07:59:14;;;;;;;30.90;28.70;;;9.20;72.00;;;;;;5093664;28;20199;-76
2021/04/18 08:01:41;;;;;;;32.28;30.08;;;9.30;71.20;;;;;;5093399;28;20306;-77
2021/04/18 08:04:09;;;;;;;32.58;30.40;;;9.20;73.10;;;;;;5093313;28;20278;-76
2021/04/18 08:06:35;;;;;;;31.75;29.65;;;9.30;70.90;;;;;;5093035;28;20191;-76
2021/04/18 08:09:15;;;;;;;31.58;29.25;;;9.40;69.60;;;;;;5093182;28;20639;-76
2021/04/18 08:11:42;;;;;;;31.23;28.92;;;9.40;69.30;;;;;;5093457;28;20240;-77
2021/04/18 08:14:17;;;;;;;32.30;30.00;;;9.40;69.70;;;;;;5093154;28;20257;-76
2021/04/18 08:16:43;;;;;;;32.55;30.35;;;9.40;72.20;;;;;;5092130;28;20662;-75
2021/04/18 08:19:11;;;;;;;31.23;28.92;;;9.30;73.70;;;;;;5093167;28;20244;-76
2021/04/18 08:21:39;;;;;;;33.75;31.45;;;9.20;71.90;;;;;;5092987;28;20215;-75
2021/04/18 08:24:28;;;;;;;30.15;28.15;;;9.30;71.70;;;;;;5093077;28;20198;-76
2021/04/18 08:26:59;;;;;;;32.22;29.88;;;9.50;72.00;;;;;;5092427;28;20285;-76
2021/04/18 08:29:25;;;;;;;29.70;27.90;;;10.00;70.70;;;;;;5092694;28;20226;-76
2021/04/18 08:32:11;;;;;;;30.40;28.30;;;10.10;70.30;;;;;;5092819;28;20199;-77
2021/04/18 08:34:44;;;;;;;29.20;27.30;;;10.30;68.90;;;;;;5092951;28;20626;-77
2021/04/18 08:37:20;;;;;;;29.70;27.70;;;10.30;71.70;;;;;;5092080;28;20679;-77
2021/04/18 08:39:47;;;;;;;30.83;28.63;;;10.20;69.70;;;;;;5092593;28;20250;-77
2021/04/18 08:42:29;;;;;;;30.77;28.67;;;10.40;68.20;;;;;;5092877;28;20201;-76
2021/04/18 08:44:56;;;;;;;30.08;28.10;;;10.50;66.20;;;;;;5092646;28;20700;-76
2021/04/18 08:47:25;;;;;;;29.10;27.10;;;10.50;64.90;;;;;;5091876;28;20214;-78
2021/04/18 08:49:56;;;;;;;28.93;27.13;;;10.60;64.00;;;;;;5092504;28;20473;-77
2021/04/18 08:52:24;;;;;;;27.93;26.13;;;10.50;64.00;;;;;;5092658;28;20457;-76
2021/04/18 08:54:57;;;;;;;29.90;28.00;;;10.50;65.20;;;;;;5092661;28;20480;-76
2021/04/18 08:57:25;;;;;;;29.43;27.30;;;10.50;65.10;;;;;;5091862;28;20465;-76
2021/04/18 08:59:54;;;;;;;28.40;26.60;;;10.60;65.40;;;;;;5092347;28;20469;-76
2021/04/18 09:02:22;;;;;;;29.10;26.83;;;10.80;63.50;;;;;;5092481;28;20826;-76
2021/04/18 09:04:50;;;;;;;27.23;25.53;;;10.80;63.40;;;;;;5092338;28;20977;-76
2021/04/18 09:07:18;;;;;;;27.92;26.13;;;11.10;62.00;;;;;;5092003;28;20476;-77
2021/04/18 09:09:45;;;;;;;30.80;28.73;;;11.20;61.50;;;;;;5092246;28;20724;-76
2021/04/18 09:12:14;;;;;;;27.70;25.93;;;10.90;60.70;;;;;;5092287;28;20525;-76
2021/04/18 09:14:43;;;;;;;29.73;27.60;;;10.70;61.60;;;;;;5092226;28;20484;-77
2021/04/18 09:17:12;;;;;;;29.20;27.00;;;10.70;61.70;;;;;;5091423;28;20536;-76
2021/04/18 09:19:40;;;;;;;31.13;28.90;;;10.70;61.40;;;;;;5092140;28;20449;-76
2021/04/18 09:22:09;;;;;;;29.07;27.27;;;10.60;63.30;;;;;;5092003;28;20476;-76
2021/04/18 09:24:39;;;;;;;29.30;27.50;;;10.80;62.40;;;;;;5092318;28;20448;-77
2021/04/18 09:27:09;;;;;;;28.57;26.67;;;10.90;62.90;;;;;;5091715;28;20445;-76
2021/04/18 09:29:42;;;;;;;35.07;32.47;;;11.00;62.90;;;;;;5091900;28;20957;-76
2021/04/18 09:32:12;;;;;;;32.10;29.33;;;11.20;62.90;;;;;;5092165;28;20485;-76
2021/04/18 09:34:41;;;;;;;29.07;27.27;;;11.50;61.50;;;;;;5094765;28;20585;-76
2021/04/18 09:37:10;;;;;;;30.67;28.70;;;11.40;61.70;;;;;;5095561;28;20540;-76
2021/04/18 09:39:38;;;;;;;30.53;28.43;;;11.40;64.50;;;;;;5096286;28;20518;-76
2021/04/18 09:42:06;;;;;;;30.77;28.57;;;11.50;61.80;;;;;;5095974;28;20544;-76
2021/04/18 09:44:39;;;;;;;30.40;28.50;;;11.90;61.80;;;;;;5096150;28;20446;-76
2021/04/18 09:47:16;;;;;;;29.03;27.23;;;12.00;59.70;;;;;;5095393;28;20513;-76
2021/04/18 09:49:48;;;;;;;28.53;26.63;;;12.00;61.20;;;;;;5095961;28;20555;-76
2021/04/18 09:52:29;;;;;;;29.30;27.30;;;11.70;61.10;;;;;;5095865;28;20455;-76
2021/04/18 09:55:17;;;;;;;29.57;27.57;;;11.80;63.90;;;;;;5095809;28;20477;-75
2021/04/18 09:57:45;;;;;;;29.50;27.47;;;11.90;60.20;;;;;;5095408;28;20488;-76
2021/04/18 10:00:17;;;;;;;30.37;28.27;;;12.20;59.40;;;;;;5095567;28;20469;-77
2021/04/18 10:02:57;;;;;;;33.53;31.23;;;12.00;59.30;;;;;;5095767;28;20488;-76
2021/04/18 10:05:24;;;;;;;29.83;27.63;;;11.90;59.90;;;;;;5095581;28;20455;-77
2021/04/18 10:07:51;;;;;;;30.10;27.90;;;12.00;59.50;;;;;;5095072;28;20876;-76
2021/04/18 10:10:31;;;;;;;33.20;31.10;;;12.00;62.50;;;;;;5095622;28;20505;-77
2021/04/18 10:13:00;;;;;;;30.53;28.53;;;12.30;65.60;;;;;;5095841;28;20453;-76
2021/04/18 10:15:27;;;;;;;29.70;27.60;;;12.50;61.50;;;;;;5094899;28;20481;-75
2021/04/18 10:17:53;;;;;;;29.30;27.50;;;12.60;58.60;;;;;;5094898;28;20464;-76
2021/04/18 10:20:25;;;;;;;31.27;29.27;;;12.50;60.00;;;;;;5095403;28;20508;-76
2021/04/18 10:23:09;;;;;;;29.13;27.33;;;12.50;59.20;;;;;;5095258;28;20448;-77
2021/04/18 10:25:37;;;;;;;30.40;28.40;;;12.60;58.20;;;;;;5094665;28;20453;-76
2021/04/18 10:28:05;;;;;;;28.30;26.50;;;12.70;57.20;;;;;;5094930;28;20492;-76
2021/04/18 10:30:33;;;;;;;30.90;28.90;;;12.70;57.50;;;;;;5095105;28;20506;-76
2021/04/18 10:32:59;;;;;;;30.57;28.20;;;13.00;57.10;;;;;;5095245;28;20815;-77
2021/04/18 10:35:26;;;;;;;31.10;29.00;;;13.00;56.50;;;;;;5094883;28;20545;-76
2021/04/18 10:37:52;;;;;;;31.67;28.47;;;13.10;57.10;;;;;;5095167;28;20448;-76
2021/04/18 10:40:22;;;;;;;30.33;28.30;;;12.90;56.70;;;;;;5094743;28;20525;-76
2021/04/18 10:42:49;;;;;;;32.73;30.20;;;12.90;56.40;;;;;;5095051;28;20938;-76
2021/04/18 10:45:17;;;;;;;30.97;28.90;;;12.80;60.50;;;;;;5093647;28;20539;-76
2021/04/18 10:47:44;;;;;;;28.90;27.13;;;12.80;63.40;;;;;;5094468;28;20457;-75
2021/04/18 10:50:12;;;;;;;33.83;31.60;;;13.00;61.00;;;;;;5094898;28;20548;-77
2021/04/18 10:52:39;;;;;;;31.60;29.30;;;13.40;59.10;;;;;;5094867;28;20457;-77
2021/04/18 10:55:06;;;;;;;32.27;29.97;;;13.60;57.00;;;;;;5094463;28;20822;-78
2021/04/18 10:57:33;;;;;;;30.23;28.33;;;13.70;55.10;;;;;;5094576;28;20943;-78
2021/04/18 10:59:59;;;;;;;32.90;30.80;;;13.70;54.90;;;;;;5095452;28;20560;-77
2021/04/18 11:02:25;;;;;;;30.67;28.67;;;13.50;54.70;;;;;;5094663;28;20528;-76
2021/04/18 11:04:53;;;;;;;29.77;27.83;;;13.60;54.40;;;;;;5094447;28;20498;-76
2021/04/18 11:07:19;;;;;;;30.63;28.63;;;13.30;55.90;;;;;;5093903;28;20583;-76
2021/04/18 11:09:45;;;;;;;33.37;31.10;;;13.20;55.90;;;;;;5094262;28;20884;-77
2021/04/18 11:12:17;;;;;;;30.93;29.03;;;13.50;56.00;;;;;;5094391;28;20524;-77
2021/04/18 11:14:44;;;;;;;31.90;29.77;;;13.40;55.60;;;;;;5094197;28;20828;-78
2021/04/18 11:17:11;;;;;;;32.93;30.67;;;13.50;54.60;;;;;;5093376;28;20461;-78
2021/04/18 11:19:37;;;;;;;31.67;29.70;;;13.40;55.00;;;;;;5094168;28;20471;-76
2021/04/18 11:22:04;;;;;;;31.37;29.27;;;13.20;56.00;;;;;;5093875;28;20540;-78
2021/04/18 11:24:31;;;;;;;31.03;28.93;;;13.20;56.10;;;;;;5094022;28;20541;-77
2021/04/18 11:26:57;;;;;;;30.73;28.83;;;13.50;55.70;;;;;;5094052;28;20455;-78
2021/04/18 11:29:24;;;;;;;30.33;28.33;;;13.90;53.50;;;;;;5094340;28;20464;-76
2021/04/18 11:31:50;;;;;;;29.33;27.60;;;13.90;53.00;;;;;;5094310;28;20547;-77
2021/04/18 11:34:17;;;;;;;31.00;29.00;;;13.50;54.70;;;;;;5094071;28;20477;-75
2021/04/18 11:36:44;;;;;;;30.03;28.20;;;13.40;55.20;;;;;;5093151;28;20550;-76
2021/04/18 11:39:12;;;;;;;31.23;29.13;;;13.10;55.00;;;;;;5093842;28;20461;-76
2021/04/18 11:41:41;;;;;;;30.50;28.57;;;12.90;55.80;;;;;;5096381;28;20601;-76
2021/04/18 11:44:08;;;;;;;32.40;30.07;;;13.10;55.40;;;;;;5094006;28;20536;-76
2021/04/18 11:46:35;;;;;;;29.03;27.23;;;13.20;55.30;;;;;;5092842;28;20550;-76
2021/04/18 11:49:01;;;;;;;30.80;28.70;;;12.90;55.20;;;;;;5093481;28;20981;-76
2021/04/18 11:51:28;;;;;;;30.10;28.20;;;12.70;56.30;;;;;;5093655;28;20544;-77
2021/04/18 11:53:55;;;;;;;30.03;28.13;;;12.70;56.30;;;;;;5093975;28;20960;-76
2021/04/18 11:56:22;;;;;;;29.83;27.83;;;12.60;56.30;;;;;;5092890;28;20457;-77
2021/04/18 11:58:48;;;;;;;30.00;28.00;;;12.90;56.30;;;;;;5093500;28;20964;-77
2021/04/18 12:01:15;;;;;;;29.80;27.90;;;13.00;55.90;;;;;;5093534;28;20544;-77
2021/04/18 12:03:41;;;;;;;30.50;28.43;;;13.30;55.60;;;;;;5093412;28;21012;-77
2021/04/18 12:06:08;;;;;;;30.87;28.77;;;13.30;56.40;;;;;;5092877;28;20994;-77
2021/04/18 12:08:35;;;;;;;32.90;30.77;;;13.40;58.10;;;;;;5093244;28;20507;-76
2021/04/18 12:11:02;;;;;;;31.17;29.07;;;13.60;58.20;;;;;;5093062;28;20477;-77
2021/04/18 12:13:29;;;;;;;30.90;28.80;;;13.70;57.40;;;;;;5093281;28;20449;-76
2021/04/18 12:15:55;;;;;;;29.67;27.87;;;13.60;55.30;;;;;;5092734;28;20481;-75
2021/04/18 12:18:22;;;;;;;30.43;28.43;;;13.50;54.80;;;;;;5092435;28;20470;-77
2021/04/18 12:20:49;;;;;;;29.33;27.43;;;13.30;55.30;;;;;;5093151;28;20476;-76
2021/04/18 12:23:15;;;;;;;31.20;29.20;;;13.40;55.00;;;;;;5092820;28;20449;-77
2021/04/18 12:25:42;;;;;;;30.33;28.43;;;13.60;54.40;;;;;;5092592;28;20479;-76
2021/04/18 12:28:10;;;;;;;31.50;29.50;;;13.60;55.20;;;;;;5092961;28;20826;-77
2021/04/18 12:30:37;;;;;;;29.73;27.93;;;13.60;54.80;;;;;;5092903;28;20490;-77
2021/04/18 12:33:04;;;;;;;30.10;28.10;;;13.60;54.50;;;;;;5092746;28;20586;-77
2021/04/18 12:35:30;;;;;;;32.70;30.60;;;13.50;55.20;;;;;;5092360;28;20473;-77